createdAt,value
2019-01-13T00:02:48.007Z,4.78
2019-01-13T00:07:50.061Z,4.90
2019-01-13T00:12:52.491Z,5.25
2019-01-13T00:17:54.566Z,4.58
2019-01-13T00:22:56.621Z,4.10
2019-01-13T00:27:58.686Z,4.45
2019-01-13T00:33:00.784Z,4.28
2019-01-13T00:38:02.822Z,4.20
2019-01-13T00:43:04.977Z,4.05
2019-01-13T00:48:07.092Z,4.20
2019-01-13T00:53:09.238Z,4.58
2019-01-13T00:58:11.328Z,4.85
2019-01-13T01:03:13.435Z,4.60
2019-01-13T01:08:15.714Z,5.28
2019-01-13T01:13:17.769Z,4.30
2019-01-13T01:18:19.843Z,4.97
2019-01-13T01:23:22.158Z,5.30
2019-01-13T01:28:24.190Z,5.28
2019-01-13T01:33:26.789Z,5.37
2019-01-13T01:38:28.869Z,4.28
2019-01-13T01:43:30.967Z,4.40
2019-01-13T01:48:33.088Z,4.40
2019-01-13T01:53:35.168Z,3.95
2019-01-13T01:58:37.182Z,3.70
2019-01-13T02:03:39.398Z,3.83
2019-01-13T02:08:41.473Z,3.25
2019-01-13T02:13:43.608Z,3.40
2019-01-13T02:18:45.657Z,3.02
2019-01-13T02:23:47.740Z,3.27
2019-01-13T02:28:49.935Z,4.00
2019-01-13T02:33:52.001Z,3.67
2019-01-13T02:38:54.073Z,4.00
2019-01-13T02:43:56.164Z,4.17
2019-01-13T02:48:58.289Z,4.70
2019-01-13T02:54:00.353Z,5.20
2019-01-13T02:59:02.444Z,6.28
2019-01-13T03:04:04.531Z,5.67
2019-01-13T03:09:07.421Z,6.65
2019-01-13T03:14:09.501Z,5.83
2019-01-13T03:19:11.511Z,5.80
2019-01-13T03:24:13.649Z,6.40
2019-01-13T03:29:15.718Z,6.70
2019-01-13T03:34:18.057Z,6.92
2019-01-13T03:39:20.170Z,6.95
2019-01-13T03:44:22.207Z,6.53
2019-01-13T03:49:24.341Z,6.37
2019-01-13T03:54:26.455Z,6.60
2019-01-13T03:59:28.532Z,6.75
2019-01-13T04:04:30.566Z,6.67
2019-01-13T04:09:32.602Z,7.00
2019-01-13T04:14:35.053Z,7.50
2019-01-13T04:19:37.095Z,8.05
2019-01-13T04:24:39.171Z,7.35
2019-01-13T04:29:41.206Z,8.05
2019-01-13T04:34:43.352Z,7.70
2019-01-13T04:39:45.448Z,7.60
2019-01-13T04:44:47.519Z,8.00
2019-01-13T04:49:49.657Z,8.73
2019-01-13T04:54:51.673Z,8.73
2019-01-13T04:59:54.042Z,8.15
2019-01-13T05:04:56.089Z,8.25
2019-01-13T05:09:58.111Z,7.70
2019-01-13T05:15:00.184Z,7.80
2019-01-13T05:25:31.860Z,6.85
2019-01-13T05:30:33.963Z,7.08
2019-01-13T05:35:36.036Z,6.87
2019-01-13T05:40:38.071Z,7.53
2019-01-13T05:45:40.216Z,7.40
2019-01-13T05:50:42.291Z,6.60
2019-01-13T05:55:44.682Z,7.17
2019-01-13T06:00:46.762Z,7.70
2019-01-13T06:05:49.040Z,7.72
2019-01-13T06:10:51.077Z,7.95
2019-01-13T06:15:53.170Z,8.10
2019-01-13T06:20:55.239Z,8.70
2019-01-13T06:25:57.334Z,9.83
2019-01-13T06:30:59.651Z,9.43
2019-01-13T06:36:02.150Z,9.55
2019-01-13T06:41:04.276Z,8.95
2019-01-13T06:46:06.316Z,9.28
2019-01-13T06:51:08.473Z,9.10
2019-01-13T06:56:10.501Z,8.78
2019-01-13T07:01:12.704Z,8.00
2019-01-13T07:06:14.803Z,8.35
2019-01-13T07:11:16.910Z,8.28
2019-01-13T07:16:18.996Z,7.60
2019-01-13T07:21:21.018Z,8.33
2019-01-13T07:26:23.074Z,8.90
2019-01-13T07:31:44.567Z,9.08
2019-01-13T07:36:46.643Z,9.58
2019-01-13T07:41:48.706Z,9.98
2019-01-13T07:46:50.788Z,8.78
2019-01-13T07:51:52.994Z,10.23
2019-01-13T07:56:55.434Z,9.55
2019-01-13T08:01:57.446Z,8.10
2019-01-13T08:06:59.523Z,7.78
2019-01-13T08:12:01.786Z,7.08
2019-01-13T08:17:04.094Z,6.62
2019-01-13T08:22:06.192Z,6.53
2019-01-13T08:27:08.335Z,5.85
2019-01-13T08:32:11.042Z,5.10
2019-01-13T08:37:13.169Z,4.87
2019-01-13T08:42:15.175Z,4.92
2019-01-13T08:47:17.243Z,4.72
2019-01-13T08:52:19.395Z,4.40
2019-01-13T08:57:21.518Z,4.37
2019-01-13T09:02:23.656Z,4.55
2019-01-13T09:07:25.817Z,4.12
2019-01-13T09:12:27.947Z,3.90
2019-01-13T09:17:30.055Z,4.12
2019-01-13T09:22:32.106Z,3.65
2019-01-13T09:27:37.002Z,4.30
2019-01-13T09:32:39.639Z,3.60
2019-01-13T09:37:43.146Z,3.70
2019-01-13T09:42:45.229Z,4.10
2019-01-13T09:47:47.405Z,3.70
2019-01-13T09:52:49.622Z,3.30
2019-01-13T09:57:51.956Z,3.40
2019-01-13T10:02:54.425Z,3.67
2019-01-13T10:07:56.494Z,4.05
2019-01-13T10:12:58.583Z,3.70
2019-01-13T10:18:00.646Z,3.85
2019-01-13T10:23:02.834Z,3.87
2019-01-13T10:28:05.441Z,4.15
2019-01-13T10:33:07.544Z,3.67
2019-01-13T10:38:09.707Z,3.30
2019-01-13T10:43:11.837Z,3.55
2019-01-13T10:48:13.918Z,3.90
2019-01-13T10:53:15.971Z,3.37
2019-01-13T10:58:18.354Z,3.35
2019-01-13T11:03:20.730Z,2.90
2019-01-13T11:08:22.846Z,3.27
2019-01-13T11:13:24.963Z,3.27
2019-01-13T11:18:27.100Z,3.40
2019-01-13T11:23:29.205Z,3.15
2019-01-13T11:28:31.438Z,3.27
2019-01-13T11:33:33.456Z,2.87
2019-01-13T11:38:40.947Z,2.30
2019-01-13T11:44:04.835Z,2.72
2019-01-13T11:49:09.524Z,2.70
2019-01-13T11:54:11.880Z,2.45
2019-01-13T11:59:14.075Z,2.55
2019-01-13T12:04:16.206Z,2.52
2019-01-13T12:09:18.286Z,2.45
2019-01-13T12:14:20.373Z,2.67
2019-01-13T12:19:23.021Z,3.33
2019-01-13T12:24:25.199Z,3.08
2019-01-13T12:29:30.877Z,3.20
2019-01-13T12:34:33.064Z,3.50
2019-01-13T12:39:35.295Z,3.67
2019-01-13T12:44:39.788Z,3.58
2019-01-13T12:49:41.927Z,3.35
2019-01-13T12:54:44.026Z,4.60
2019-01-13T13:00:07.213Z,3.92
2019-01-13T13:05:10.381Z,3.55
2019-01-13T13:10:20.214Z,3.87
2019-01-13T13:15:22.672Z,4.67
2019-01-13T13:25:54.488Z,4.95
2019-01-13T13:30:56.868Z,5.10
2019-01-13T13:35:59.037Z,4.30
2019-01-13T13:41:01.296Z,4.10
2019-01-13T13:46:24.647Z,2.92
2019-01-13T13:51:26.849Z,3.05
2019-01-13T13:56:28.876Z,3.27
2019-01-13T14:01:31.263Z,2.90
2019-01-13T14:06:33.305Z,3.30
2019-01-13T14:11:35.370Z,2.72
2019-01-13T14:16:37.423Z,2.72
2019-01-13T14:21:39.419Z,2.92
2019-01-13T14:26:41.449Z,2.92
2019-01-13T14:31:43.458Z,2.72
2019-01-13T14:36:45.549Z,2.95
2019-01-13T14:41:47.690Z,3.02
2019-01-13T14:46:49.803Z,2.87
2019-01-13T14:51:52.205Z,2.83
2019-01-13T14:56:54.232Z,2.37
2019-01-13T15:01:56.254Z,2.47
2019-01-13T15:06:58.279Z,2.52
2019-01-13T15:12:00.652Z,2.00
2019-01-13T15:17:02.626Z,2.40
2019-01-13T15:22:04.645Z,2.42
2019-01-13T15:27:07.322Z,2.37
2019-01-13T15:32:09.622Z,2.20
2019-01-13T15:37:11.658Z,2.10
2019-01-13T15:42:13.747Z,1.80
2019-01-13T15:47:15.758Z,2.15
2019-01-13T15:52:17.855Z,1.77
2019-01-13T15:57:19.937Z,1.80
2019-01-13T16:02:22.087Z,1.80
2019-01-13T16:07:24.121Z,1.57
2019-01-13T16:12:26.227Z,1.80
2019-01-13T16:17:28.564Z,1.70
2019-01-13T16:22:30.916Z,1.90
2019-01-13T16:27:33.016Z,1.70
2019-01-13T16:32:38.086Z,1.85
2019-01-13T16:37:42.219Z,2.25
2019-01-13T16:42:44.462Z,1.98
2019-01-13T16:47:46.766Z,2.15
2019-01-13T16:52:50.966Z,1.95
2019-01-13T16:57:53.252Z,1.85
2019-01-13T17:08:11.586Z,2.20
2019-01-13T17:13:13.663Z,2.40
2019-01-13T17:18:15.776Z,2.12
2019-01-13T17:23:17.849Z,2.12
2019-01-13T17:28:20.012Z,3.08
2019-01-13T17:33:22.067Z,2.85
2019-01-13T17:38:24.162Z,1.80
2019-01-13T17:43:26.193Z,1.85
2019-01-13T17:48:28.691Z,1.70
2019-01-13T17:53:31.002Z,1.75
2019-01-13T17:58:33.087Z,1.82
2019-01-13T18:03:39.179Z,1.20
2019-01-13T18:08:41.351Z,1.87
2019-01-13T18:13:43.434Z,1.40
2019-01-13T18:18:45.517Z,1.42
2019-01-13T18:23:47.568Z,1.90
2019-01-13T18:28:49.648Z,1.75
2019-01-13T18:33:51.932Z,2.20
2019-01-13T18:38:54.027Z,1.95
2019-01-13T18:43:56.469Z,2.00
2019-01-13T18:48:58.666Z,2.20
2019-01-13T18:54:01.184Z,2.10
2019-01-13T18:59:03.415Z,1.87
2019-01-13T19:04:05.677Z,2.95
2019-01-13T19:09:09.907Z,2.90
2019-01-13T19:14:35.523Z,3.02
2019-01-13T19:20:16.494Z,3.47
2019-01-13T19:25:38.094Z,3.33
2019-01-13T19:30:40.301Z,3.60
2019-01-13T19:35:42.379Z,3.65
2019-01-13T19:40:44.521Z,3.58
2019-01-13T19:45:46.691Z,3.60
2019-01-13T19:50:49.500Z,4.15
2019-01-13T19:55:51.795Z,3.25
2019-01-13T20:00:54.038Z,3.17
2019-01-13T20:05:56.271Z,2.00
2019-01-13T20:10:58.800Z,1.50
2019-01-13T20:16:01.088Z,1.40
2019-01-13T20:21:03.205Z,1.95
2019-01-13T20:26:05.658Z,2.55
2019-01-13T20:31:08.040Z,2.65
2019-01-13T20:36:10.457Z,3.25
2019-01-13T20:41:12.617Z,3.20
2019-01-13T20:46:14.871Z,2.85
2019-01-13T20:51:16.909Z,3.42
2019-01-13T20:56:19.043Z,2.17
2019-01-13T21:01:21.217Z,2.00
2019-01-13T21:06:23.579Z,1.62
2019-01-13T21:11:25.689Z,1.47
2019-01-13T21:16:27.731Z,1.67
2019-01-13T21:21:29.766Z,1.65
2019-01-13T21:26:31.849Z,1.35
2019-01-13T21:31:33.926Z,1.60
2019-01-13T21:36:35.981Z,1.47
2019-01-13T21:41:38.006Z,1.70
2019-01-13T21:46:40.080Z,2.20
2019-01-13T21:51:42.093Z,2.00
2019-01-13T21:56:44.543Z,1.82
2019-01-13T22:01:46.592Z,2.58
2019-01-13T22:06:48.607Z,2.15
2019-01-13T22:11:50.711Z,2.15
2019-01-13T22:16:52.982Z,2.27
2019-01-13T22:21:55.057Z,2.50
2019-01-13T22:26:57.094Z,2.55
2019-01-13T22:31:59.117Z,2.95
2019-01-13T22:37:02.066Z,2.83
2019-01-13T22:42:04.251Z,2.47
2019-01-13T22:47:06.306Z,2.47
2019-01-13T22:52:08.633Z,3.08
2019-01-13T22:57:10.773Z,2.52
2019-01-13T23:02:12.783Z,2.47
2019-01-13T23:07:14.997Z,2.22
2019-01-13T23:12:17.120Z,2.50
2019-01-13T23:17:19.229Z,2.42
2019-01-13T23:22:22.342Z,2.50
2019-01-13T23:27:24.428Z,2.85
2019-01-13T23:32:26.696Z,2.33
2019-01-13T23:37:28.689Z,2.30
2019-01-13T23:42:31.035Z,3.05
2019-01-13T23:47:33.077Z,2.75
2019-01-13T23:52:35.603Z,3.05
2019-01-13T23:57:37.741Z,3.20
